createdAt,value
2022-10-18T00:01:59.473Z,3.88
2022-10-18T00:04:48.668Z,4.38
2022-10-18T00:07:35.372Z,5.45
2022-10-18T00:10:25.640Z,3.83
2022-10-18T00:13:12.710Z,3.78
2022-10-18T00:16:03.670Z,4.75
2022-10-18T00:18:50.406Z,5.72
2022-10-18T00:21:37.222Z,3.97
2022-10-18T00:24:23.938Z,5.13
2022-10-18T00:27:11.572Z,4.80
2022-10-18T00:29:58.341Z,3.22
2022-10-18T00:32:45.077Z,4.00
2022-10-18T00:35:34.688Z,4.38
2022-10-18T00:38:21.502Z,3.28
2022-10-18T00:41:10.645Z,7.10
2022-10-18T00:44:03.347Z,3.80
2022-10-18T00:46:51.099Z,7.13
2022-10-18T00:49:44.699Z,7.43
2022-10-18T00:52:40.403Z,6.35
2022-10-18T00:55:28.331Z,6.93
2022-10-18T01:01:03.817Z,8.65
2022-10-18T01:03:52.172Z,5.63
2022-10-18T01:06:49.377Z,5.50
2022-10-18T01:09:41.602Z,7.75
2022-10-18T01:13:03.927Z,6.10
2022-10-18T01:15:59.356Z,4.95
2022-10-18T01:18:52.722Z,6.38
2022-10-18T01:22:00.814Z,5.72
2022-10-18T01:25:17.138Z,5.70
2022-10-18T01:28:18.253Z,5.30
2022-10-18T01:31:17.231Z,5.95
2022-10-18T01:34:08.204Z,3.88
2022-10-18T01:36:58.631Z,4.55
2022-10-18T01:39:47.912Z,4.80
2022-10-18T01:42:36.602Z,4.75
2022-10-18T01:45:25.799Z,6.25
2022-10-18T01:48:15.618Z,4.53
2022-10-18T01:51:02.272Z,5.88
2022-10-18T01:53:50.608Z,6.53
2022-10-18T01:56:59.194Z,4.13
2022-10-18T02:00:18.606Z,4.20
2022-10-18T02:03:37.321Z,4.97
2022-10-18T02:06:33.607Z,6.50
2022-10-18T02:09:33.212Z,4.75
2022-10-18T02:12:23.567Z,6.97
2022-10-18T02:15:13.421Z,8.02
2022-10-18T02:18:08.567Z,5.88
2022-10-18T02:20:56.126Z,4.82
2022-10-18T02:23:47.709Z,7.28
2022-10-18T02:26:34.414Z,3.65
2022-10-18T02:29:22.580Z,3.50
2022-10-18T02:32:21.410Z,3.13
2022-10-18T02:35:41.599Z,4.07
2022-10-18T02:38:31.303Z,4.30
2022-10-18T02:41:27.585Z,3.78
2022-10-18T02:44:14.696Z,7.18
2022-10-18T02:47:03.593Z,5.20
2022-10-18T02:49:50.303Z,3.08
2022-10-18T02:52:38.593Z,6.35
2022-10-18T02:55:25.276Z,7.30
2022-10-18T02:58:13.588Z,5.25
2022-10-18T03:01:00.294Z,7.05
2022-10-18T03:03:48.596Z,7.53
2022-10-18T03:06:35.294Z,4.55
2022-10-18T03:09:23.578Z,4.57
2022-10-18T03:12:10.330Z,4.28
2022-10-18T03:14:58.618Z,4.70
2022-10-18T03:17:45.651Z,4.85
2022-10-18T03:20:35.598Z,6.70
2022-10-18T03:23:22.302Z,5.30
2022-10-18T03:26:10.573Z,5.28
2022-10-18T03:28:57.331Z,5.70
2022-10-18T03:31:45.565Z,5.63
2022-10-18T03:34:32.233Z,5.90
2022-10-18T03:37:20.605Z,4.95
2022-10-18T03:40:09.182Z,5.15
2022-10-18T03:42:57.666Z,4.78
2022-10-18T03:45:44.966Z,5.25
2022-10-18T03:48:33.547Z,3.63
2022-10-18T03:51:20.379Z,5.45
2022-10-18T03:54:08.568Z,3.70
2022-10-18T03:56:55.287Z,5.57
2022-10-18T03:59:43.547Z,4.32
2022-10-18T04:02:30.456Z,3.50
2022-10-18T04:05:18.551Z,6.32
2022-10-18T04:10:54.576Z,4.63
2022-10-18T04:13:41.306Z,6.07
2022-10-18T04:16:29.608Z,8.10
2022-10-18T04:19:16.559Z,7.95
2022-10-18T04:22:04.561Z,8.30
2022-10-18T04:24:53.291Z,7.85
2022-10-18T04:27:41.557Z,8.10
2022-10-18T04:30:28.232Z,11.88
2022-10-18T04:33:16.543Z,48.25
2022-10-18T04:36:03.827Z,37.35
2022-10-18T04:38:52.539Z,25.98
2022-10-18T04:41:39.252Z,18.80
2022-10-18T04:44:27.583Z,17.13
2022-10-18T04:47:14.374Z,11.73
2022-10-18T04:50:02.559Z,13.13
2022-10-18T04:55:38.553Z,21.88
2022-10-18T04:58:25.483Z,18.98
2022-10-18T05:01:14.544Z,15.40
2022-10-18T05:04:01.342Z,17.15
2022-10-18T05:06:49.535Z,12.27
2022-10-18T05:09:36.239Z,18.23
2022-10-18T05:12:24.522Z,12.10
2022-10-18T05:15:11.228Z,7.88
2022-10-18T05:17:59.553Z,9.65
2022-10-18T05:20:46.974Z,5.57
2022-10-18T05:23:35.538Z,6.50
2022-10-18T05:26:22.428Z,3.85
2022-10-18T05:29:10.637Z,5.68
2022-10-18T05:31:57.446Z,6.93
2022-10-18T05:34:45.551Z,3.25
2022-10-18T05:37:32.366Z,7.50
2022-10-18T05:40:20.548Z,5.93
2022-10-18T05:43:07.251Z,4.82
2022-10-18T05:45:55.568Z,3.10
2022-10-18T05:48:44.000Z,4.47
2022-10-18T05:51:32.546Z,4.18
2022-10-18T05:54:19.411Z,5.10
2022-10-18T05:57:07.556Z,5.22
2022-10-18T05:59:54.458Z,3.83
2022-10-18T06:02:42.660Z,5.60
2022-10-18T06:05:29.451Z,5.53
2022-10-18T06:08:17.542Z,5.63
2022-10-18T06:11:08.119Z,4.85
2022-10-18T06:13:56.563Z,3.80
2022-10-18T06:16:43.277Z,4.28
2022-10-18T06:19:31.498Z,3.22
2022-10-18T06:22:18.222Z,5.13
2022-10-18T06:25:06.517Z,3.80
2022-10-18T06:27:53.282Z,3.83
2022-10-18T06:30:41.510Z,5.22
2022-10-18T06:33:30.202Z,2.95
2022-10-18T06:36:21.527Z,3.90
2022-10-18T06:39:08.428Z,3.95
2022-10-18T06:41:56.530Z,6.77
2022-10-18T06:44:43.244Z,5.50
2022-10-18T06:47:31.510Z,5.63
2022-10-18T06:50:18.168Z,2.88
2022-10-18T06:53:07.543Z,4.60
2022-10-18T06:56:00.586Z,3.83
2022-10-18T06:58:48.585Z,3.85
2022-10-18T07:01:35.395Z,3.38
2022-10-18T07:04:23.516Z,3.75
2022-10-18T07:07:10.351Z,4.93
2022-10-18T07:09:58.495Z,4.70
2022-10-18T07:12:45.288Z,3.92
2022-10-18T07:18:25.156Z,6.13
2022-10-18T07:21:16.500Z,5.55
2022-10-18T07:24:03.334Z,4.95
2022-10-18T07:26:51.499Z,4.50
2022-10-18T07:29:39.542Z,4.63
2022-10-18T07:32:27.527Z,5.47
2022-10-18T07:35:26.408Z,4.55
2022-10-18T07:38:15.084Z,6.13
2022-10-18T07:41:03.685Z,5.05
2022-10-18T07:43:54.082Z,7.25
2022-10-18T07:46:40.812Z,4.18
2022-10-18T07:49:29.106Z,3.95
2022-10-18T07:52:15.793Z,5.05
2022-10-18T07:55:04.133Z,5.47
2022-10-18T07:57:50.838Z,5.97
2022-10-18T08:00:39.095Z,4.38
2022-10-18T08:03:25.755Z,4.80
2022-10-18T08:06:16.073Z,4.30
2022-10-18T08:09:03.694Z,5.55
2022-10-18T08:11:52.098Z,4.38
2022-10-18T08:14:38.805Z,7.15
2022-10-18T08:17:27.072Z,8.95
2022-10-18T08:20:30.029Z,7.03
2022-10-18T08:23:19.120Z,8.50
2022-10-18T08:26:09.410Z,10.43
2022-10-18T08:29:17.584Z,8.45
2022-10-18T08:32:05.307Z,9.88
2022-10-18T08:34:54.143Z,7.20
2022-10-18T08:37:40.867Z,7.07
2022-10-18T08:40:30.117Z,5.57
2022-10-18T08:43:40.867Z,5.55
2022-10-18T08:46:30.052Z,7.50
2022-10-18T08:49:45.631Z,7.05
2022-10-18T08:52:43.422Z,5.53
2022-10-18T08:55:36.586Z,6.35
2022-10-18T08:58:30.879Z,5.47
2022-10-18T09:01:20.366Z,7.18
2022-10-18T09:04:25.333Z,4.90
2022-10-18T09:07:40.904Z,5.40
2022-10-18T09:10:51.198Z,5.60
2022-10-18T09:13:40.874Z,5.65
2022-10-18T09:16:38.093Z,4.00
2022-10-18T09:22:53.654Z,5.50
2022-10-18T09:25:56.077Z,5.32
2022-10-18T09:32:44.935Z,5.22
2022-10-18T09:35:57.152Z,6.45
2022-10-18T09:38:48.222Z,8.65
2022-10-18T09:41:39.181Z,6.85
2022-10-18T09:44:31.036Z,6.55
2022-10-18T09:48:06.084Z,5.53
2022-10-18T09:50:57.163Z,5.38
2022-10-18T09:54:06.504Z,5.05
2022-10-18T09:57:06.716Z,4.72
2022-10-18T09:59:55.055Z,5.50
2022-10-18T10:02:41.874Z,8.13
2022-10-18T10:05:30.075Z,3.90
2022-10-18T10:08:16.785Z,7.57
2022-10-18T10:11:05.033Z,5.63
2022-10-18T10:13:51.734Z,7.00
2022-10-18T10:16:51.074Z,3.83
2022-10-18T10:20:03.855Z,4.88
2022-10-18T10:22:54.089Z,4.75
2022-10-18T10:25:42.450Z,4.47
2022-10-18T10:28:38.088Z,4.97
2022-10-18T10:31:24.965Z,4.68
2022-10-18T10:37:02.775Z,4.78
2022-10-18T10:40:28.797Z,4.53
2022-10-18T10:43:44.541Z,5.75
2022-10-18T10:46:38.049Z,5.07
2022-10-18T10:49:40.393Z,4.30
2022-10-18T10:52:31.086Z,2.67
2022-10-18T10:55:34.485Z,4.00
2022-10-18T10:58:25.056Z,4.13
2022-10-18T11:01:24.457Z,4.07
2022-10-18T11:04:32.087Z,2.53
2022-10-18T11:07:40.665Z,3.95
2022-10-18T11:10:34.509Z,2.85
2022-10-18T11:14:07.239Z,2.80
2022-10-18T11:17:11.971Z,3.13
2022-10-18T11:20:07.393Z,4.68
2022-10-18T11:22:54.147Z,2.70
2022-10-18T11:25:46.192Z,2.92
2022-10-18T11:28:58.772Z,3.53
2022-10-18T11:31:54.770Z,2.60
2022-10-18T11:35:06.313Z,4.23
2022-10-18T11:38:26.944Z,3.15
2022-10-18T11:41:36.685Z,3.97
2022-10-18T11:44:28.342Z,4.15
2022-10-18T11:47:52.238Z,4.10
2022-10-18T11:51:38.700Z,2.67
2022-10-18T11:55:06.373Z,2.55
2022-10-18T11:58:22.082Z,2.47
2022-10-18T12:01:24.618Z,3.88
2022-10-18T12:04:20.118Z,3.15
2022-10-18T12:07:10.856Z,2.72
2022-10-18T12:09:58.290Z,2.03
2022-10-18T12:12:57.027Z,4.93
2022-10-18T12:15:44.597Z,4.07
2022-10-18T12:18:32.933Z,3.40
2022-10-18T12:21:25.497Z,3.03
2022-10-18T12:24:18.419Z,4.90
2022-10-18T12:27:05.599Z,1.90
2022-10-18T12:30:03.490Z,3.42
2022-10-18T12:33:03.549Z,2.67
2022-10-18T12:36:29.019Z,3.30
2022-10-18T12:39:32.465Z,2.05
2022-10-18T12:42:33.573Z,2.63
2022-10-18T12:45:33.373Z,2.17
2022-10-18T12:48:32.489Z,3.22
2022-10-18T12:51:21.513Z,3.03
2022-10-18T12:54:10.529Z,3.03
2022-10-18T12:56:58.337Z,2.15
2022-10-18T12:59:45.148Z,4.32
2022-10-18T13:05:52.959Z,4.97
2022-10-18T13:08:42.592Z,4.72
2022-10-18T13:11:33.457Z,4.55
2022-10-18T13:14:23.429Z,3.72
2022-10-18T13:17:36.044Z,1.92
2022-10-18T13:20:27.365Z,2.85
2022-10-18T13:23:38.057Z,6.10
2022-10-18T13:26:40.188Z,2.83
2022-10-18T13:30:05.853Z,4.20
2022-10-18T13:33:04.456Z,5.00
2022-10-18T13:35:56.190Z,2.75
2022-10-18T13:38:48.706Z,2.85
2022-10-18T13:41:47.678Z,2.38
2022-10-18T13:44:40.237Z,3.78
2022-10-18T13:47:37.917Z,2.55
2022-10-18T13:50:36.202Z,2.30
2022-10-18T13:53:22.916Z,3.53
2022-10-18T13:56:32.958Z,2.83
2022-10-18T13:59:28.846Z,3.20
2022-10-18T14:02:52.984Z,3.17
2022-10-18T14:06:05.959Z,3.50
2022-10-18T14:08:55.546Z,2.80
2022-10-18T14:11:48.130Z,2.30
2022-10-18T14:14:45.313Z,2.88
2022-10-18T14:20:49.110Z,3.38
2022-10-18T14:23:45.856Z,1.58
2022-10-18T14:26:32.902Z,3.63
2022-10-18T14:29:20.537Z,2.47
2022-10-18T14:35:27.154Z,2.88
2022-10-18T14:38:13.697Z,2.83
2022-10-18T14:41:06.354Z,3.63
2022-10-18T14:44:09.340Z,2.35
2022-10-18T14:47:02.897Z,2.42
2022-10-18T14:49:50.657Z,3.00
2022-10-18T14:52:38.702Z,2.33
2022-10-18T14:55:32.467Z,2.22
2022-10-18T14:58:19.529Z,3.53
2022-10-18T15:01:06.490Z,3.35
2022-10-18T15:04:09.691Z,2.75
2022-10-18T15:06:57.035Z,1.63
2022-10-18T15:09:45.129Z,3.10
2022-10-18T15:12:36.961Z,4.30
2022-10-18T15:15:33.765Z,2.35
2022-10-18T15:18:24.020Z,3.63
2022-10-18T15:21:22.673Z,2.97
2022-10-18T15:24:51.521Z,3.38
2022-10-18T15:27:40.119Z,3.47
2022-10-18T15:30:44.700Z,3.25
2022-10-18T15:33:34.722Z,3.70
2022-10-18T15:36:30.988Z,3.55
2022-10-18T15:39:22.388Z,2.60
2022-10-18T15:42:38.327Z,2.47
2022-10-18T15:45:25.064Z,2.50
2022-10-18T15:48:14.774Z,5.17
2022-10-18T15:51:05.106Z,2.20
2022-10-18T15:53:53.900Z,2.67
2022-10-18T15:56:41.153Z,2.17
2022-10-18T15:59:30.796Z,2.47
2022-10-18T16:02:17.835Z,5.03
2022-10-18T16:05:05.081Z,2.15
2022-10-18T16:07:52.791Z,4.18
2022-10-18T16:10:39.494Z,2.97
2022-10-18T16:13:26.983Z,2.33
2022-10-18T16:16:26.001Z,2.65
2022-10-18T16:19:18.803Z,3.58
2022-10-18T16:22:09.781Z,2.30
2022-10-18T16:24:56.579Z,2.60
2022-10-18T16:27:43.400Z,2.53
2022-10-18T16:30:32.551Z,3.57
2022-10-18T16:33:21.544Z,3.03
2022-10-18T16:36:11.475Z,2.55
2022-10-18T16:39:00.783Z,4.50
2022-10-18T16:41:48.278Z,2.95
2022-10-18T16:44:34.978Z,3.92
2022-10-18T16:47:21.768Z,5.55
2022-10-18T16:50:18.241Z,2.67
2022-10-18T16:53:05.513Z,2.70
2022-10-18T16:55:55.999Z,3.28
2022-10-18T16:58:43.257Z,2.30
2022-10-18T17:01:30.085Z,5.25
2022-10-18T17:04:16.928Z,5.80
2022-10-18T17:07:04.928Z,3.20
2022-10-18T17:09:51.944Z,5.75
2022-10-18T17:12:38.915Z,4.88
2022-10-18T17:15:25.775Z,5.25
2022-10-18T17:18:15.203Z,4.33
2022-10-18T17:21:03.274Z,3.63
2022-10-18T17:23:50.148Z,5.85
2022-10-18T17:26:36.879Z,2.75
2022-10-18T17:29:23.659Z,3.58
2022-10-18T17:32:10.454Z,2.60
2022-10-18T17:34:57.286Z,3.60
2022-10-18T17:37:51.961Z,5.87
2022-10-18T17:40:43.200Z,3.95
2022-10-18T17:43:29.959Z,4.47
2022-10-18T17:46:17.796Z,6.00
2022-10-18T17:49:04.560Z,5.25
2022-10-18T17:51:51.253Z,7.85
2022-10-18T17:54:38.048Z,6.35
2022-10-18T17:57:24.803Z,4.28
2022-10-18T18:00:13.409Z,4.45
2022-10-18T18:03:01.065Z,2.92
2022-10-18T18:05:47.990Z,4.03
2022-10-18T18:08:34.685Z,4.57
2022-10-18T18:11:21.412Z,3.00
2022-10-18T18:14:09.574Z,3.03
2022-10-18T18:16:56.369Z,4.05
2022-10-18T18:19:43.235Z,4.43
2022-10-18T18:22:30.277Z,4.80
2022-10-18T18:25:17.466Z,9.52
2022-10-18T18:28:07.547Z,4.72
2022-10-18T18:30:54.471Z,5.82
2022-10-18T18:33:41.797Z,7.78
2022-10-18T18:36:32.502Z,5.47
2022-10-18T18:39:25.740Z,5.50
2022-10-18T18:42:13.403Z,5.72
2022-10-18T18:45:00.098Z,4.93
2022-10-18T18:47:46.926Z,5.43
2022-10-18T18:50:37.172Z,4.47
2022-10-18T18:53:28.537Z,5.60
2022-10-18T18:56:22.500Z,7.13
2022-10-18T18:59:11.956Z,6.85
2022-10-18T19:01:58.723Z,7.07
2022-10-18T19:04:45.422Z,5.65
2022-10-18T19:07:32.587Z,3.30
2022-10-18T19:10:19.519Z,4.75
2022-10-18T19:13:08.016Z,5.82
2022-10-18T19:16:10.833Z,6.68
2022-10-18T19:19:13.982Z,7.53
2022-10-18T19:22:04.402Z,5.72
2022-10-18T19:24:53.026Z,5.97
2022-10-18T19:27:39.852Z,5.88
2022-10-18T19:30:27.965Z,7.93
2022-10-18T19:33:15.444Z,5.70
2022-10-18T19:36:04.015Z,7.70
2022-10-18T19:38:50.722Z,5.03
2022-10-18T19:41:38.970Z,3.67
2022-10-18T19:44:30.079Z,4.10
2022-10-18T19:47:17.973Z,3.85
2022-10-18T19:52:52.986Z,3.20
2022-10-18T19:55:39.681Z,7.07
2022-10-18T19:58:28.012Z,4.03
2022-10-18T20:01:15.185Z,4.68
2022-10-18T20:04:05.978Z,6.93
2022-10-18T20:06:52.631Z,4.65
2022-10-18T20:09:40.987Z,3.65
2022-10-18T20:12:27.689Z,4.10
2022-10-18T20:15:15.954Z,4.32
2022-10-18T20:18:02.691Z,3.85
2022-10-18T20:20:50.963Z,4.10
2022-10-18T20:23:39.387Z,4.40
2022-10-18T20:26:27.949Z,4.40
2022-10-18T20:29:14.672Z,5.55
2022-10-18T20:32:02.941Z,3.45
2022-10-18T20:34:49.677Z,8.25
2022-10-18T20:37:38.941Z,2.58
2022-10-18T20:40:25.683Z,6.80
2022-10-18T20:43:13.995Z,6.03
2022-10-18T20:46:01.592Z,6.60
2022-10-18T20:48:55.963Z,3.85
2022-10-18T20:51:42.723Z,4.60
2022-10-18T20:54:30.938Z,6.85
2022-10-18T20:57:17.726Z,3.65
2022-10-18T21:00:06.985Z,4.60
2022-10-18T21:02:53.739Z,5.82
2022-10-18T21:05:41.978Z,5.97
2022-10-18T21:08:29.011Z,3.42
2022-10-18T21:11:16.994Z,6.38
2022-10-18T21:14:04.324Z,5.05
2022-10-18T21:16:53.961Z,5.00
2022-10-18T21:19:41.224Z,5.60
2022-10-18T21:22:30.186Z,3.25
2022-10-18T21:25:17.174Z,6.78
2022-10-18T21:28:05.962Z,3.10
2022-10-18T21:30:52.692Z,4.32
2022-10-18T21:33:42.926Z,4.65
2022-10-18T21:36:37.307Z,5.07
2022-10-18T21:39:25.968Z,5.22
2022-10-18T21:42:13.739Z,3.50
2022-10-18T21:45:01.960Z,3.30
2022-10-18T21:47:48.927Z,4.65
2022-10-18T21:50:36.927Z,3.43
2022-10-18T21:53:23.603Z,3.47
2022-10-18T21:56:14.924Z,5.25
2022-10-18T21:59:02.033Z,4.03
2022-10-18T22:01:49.951Z,6.50
2022-10-18T22:07:24.932Z,9.13
2022-10-18T22:10:11.684Z,4.63
2022-10-18T22:12:59.950Z,4.50
2022-10-18T22:15:46.660Z,3.78
2022-10-18T22:18:35.934Z,4.50
2022-10-18T22:21:22.655Z,6.95
2022-10-18T22:24:11.984Z,7.00
2022-10-18T22:26:58.660Z,7.10
2022-10-18T22:29:46.927Z,5.25
2022-10-18T22:32:33.608Z,9.68
2022-10-18T22:35:21.921Z,7.07
2022-10-18T22:38:08.654Z,4.75
2022-10-18T22:40:56.970Z,6.40
2022-10-18T22:43:43.794Z,5.93
2022-10-18T22:46:32.921Z,5.80
2022-10-18T22:49:19.610Z,7.43
2022-10-18T22:52:07.932Z,9.82
2022-10-18T22:54:54.632Z,8.32
2022-10-18T22:57:42.943Z,12.88
2022-10-18T23:00:29.675Z,10.00
2022-10-18T23:03:19.955Z,11.68
2022-10-18T23:06:24.579Z,11.07
2022-10-18T23:12:17.414Z,10.98
2022-10-18T23:15:04.414Z,8.45
2022-10-18T23:17:54.482Z,8.87
2022-10-18T23:20:42.909Z,7.38
2022-10-18T23:23:31.533Z,8.20
2022-10-18T23:26:22.931Z,7.97
2022-10-18T23:29:09.784Z,7.07
2022-10-18T23:31:57.883Z,7.30
2022-10-18T23:34:44.566Z,7.40
2022-10-18T23:37:33.093Z,8.15
2022-10-18T23:40:20.047Z,8.75
2022-10-18T23:43:07.923Z,9.02
2022-10-18T23:48:41.509Z,9.68
2022-10-18T23:51:28.205Z,9.10
2022-10-18T23:54:14.908Z,8.93
2022-10-18T23:57:01.578Z,8.70
2022-10-18T23:59:48.284Z,9.57
